createdAt,value
2018-07-01T00:00:55.211Z,20.99
2018-07-01T00:01:54.914Z,20.9
2018-07-01T00:02:55.316Z,20.95
2018-07-01T00:03:54.982Z,20.92
2018-07-01T00:04:55.056Z,20.85
2018-07-01T00:05:55.089Z,20.85
2018-07-01T00:06:55.211Z,20.84
2018-07-01T00:07:54.809Z,20.77
2018-07-01T00:08:54.887Z,20.85
2018-07-01T00:09:54.928Z,20.88
2018-07-01T00:10:54.973Z,20.8
2018-07-01T00:11:54.838Z,20.81
2018-07-01T00:12:55.003Z,20.75
2018-07-01T00:13:54.893Z,20.75
2018-07-01T00:14:54.911Z,20.74
2018-07-01T00:15:55.446Z,20.74
2018-07-01T00:16:55.390Z,20.65
2018-07-01T00:17:55.371Z,20.62
2018-07-01T00:18:55.132Z,20.63
2018-07-01T00:19:55.416Z,20.62
2018-07-01T00:20:55.444Z,20.62
2018-07-01T00:21:55.467Z,20.59
2018-07-01T00:22:55.226Z,20.62
2018-07-01T00:23:55.510Z,20.65
2018-07-01T00:24:55.536Z,20.62
2018-07-01T00:25:55.565Z,20.55
2018-07-01T00:26:55.316Z,20.52
2018-07-01T00:27:55.602Z,20.5
2018-07-01T00:28:55.369Z,20.5
2018-07-01T00:29:55.116Z,20.47
2018-07-01T00:30:55.672Z,20.47
2018-07-01T00:31:55.693Z,20.47
2018-07-01T00:32:55.715Z,20.52
2018-07-01T00:33:55.476Z,20.51
2018-07-01T00:34:55.784Z,20.41
2018-07-01T00:35:55.785Z,20.44
2018-07-01T00:36:55.816Z,20.41
2018-07-01T00:37:55.829Z,20.4
2018-07-01T00:38:55.858Z,20.44
2018-07-01T00:39:55.874Z,20.37
2018-07-01T00:40:55.903Z,20.37
2018-07-01T00:41:55.921Z,20.32
2018-07-01T00:42:55.689Z,20.34
2018-07-01T00:43:55.964Z,20.19
2018-07-01T00:44:55.776Z,20.28
2018-07-01T00:45:56.022Z,20.22
2018-07-01T00:46:55.774Z,20.26
2018-07-01T00:47:56.066Z,20.31
2018-07-01T00:48:56.089Z,20.24
2018-07-01T00:49:56.102Z,20.26
2018-07-01T00:50:56.126Z,20.24
2018-07-01T00:51:56.167Z,20.29
2018-07-01T00:52:55.909Z,20.19
2018-07-01T00:53:56.201Z,20.21
2018-07-01T00:54:56.220Z,20.14
2018-07-01T00:55:56.250Z,20.18
2018-07-01T00:56:56.010Z,20.19
2018-07-01T00:57:56.282Z,20.14
2018-07-01T00:58:56.306Z,20.16
2018-07-01T00:59:56.329Z,20.16
2018-07-01T01:00:56.356Z,20.13
2018-07-01T01:04:00.818Z,20.04
2018-07-01T01:05:00.847Z,20.03
2018-07-01T01:06:00.856Z,20.07
2018-07-01T01:07:00.880Z,20.07
2018-07-01T01:08:00.373Z,20.06
2018-07-01T01:09:00.656Z,20.06
2018-07-01T01:10:00.942Z,20.03
2018-07-01T01:11:00.974Z,19.96
2018-07-01T01:12:00.730Z,19.95
2018-07-01T01:13:01.013Z,19.95
2018-07-01T01:14:01.049Z,19.94
2018-07-01T01:15:01.058Z,19.89
2018-07-01T01:16:00.816Z,19.94
2018-07-01T01:17:01.098Z,19.85
2018-07-01T01:18:01.122Z,19.84
2018-07-01T01:19:01.146Z,19.82
2018-07-01T01:20:00.904Z,19.84
2018-07-01T01:21:01.224Z,19.79
2018-07-01T01:22:01.230Z,19.74
2018-07-01T01:23:00.974Z,19.7
2018-07-01T01:24:00.995Z,19.82
2018-07-01T01:25:01.011Z,19.73
2018-07-01T01:26:01.037Z,19.82
2018-07-01T01:27:01.056Z,19.79
2018-07-01T01:28:01.091Z,19.74
2018-07-01T01:29:01.106Z,19.73
2018-07-01T01:30:01.133Z,19.67
2018-07-01T01:31:01.419Z,19.76
2018-07-01T01:32:01.448Z,19.63
2018-07-01T01:33:01.462Z,19.64
2018-07-01T01:34:01.497Z,19.64
2018-07-01T01:35:01.507Z,19.64
2018-07-01T01:36:01.532Z,19.67
2018-07-01T01:37:01.291Z,19.52
2018-07-01T01:38:01.309Z,19.64
2018-07-01T01:39:01.601Z,19.63
2018-07-01T01:40:01.351Z,19.63
2018-07-01T01:41:01.632Z,19.63
2018-07-01T01:42:01.657Z,19.62
2018-07-01T01:43:01.158Z,19.56
2018-07-01T01:44:01.442Z,19.63
2018-07-01T01:45:01.468Z,19.64
2018-07-01T01:46:01.487Z,19.51
2018-07-01T01:47:01.767Z,19.56
2018-07-01T01:48:01.538Z,19.56
2018-07-01T01:49:01.814Z,19.56
2018-07-01T01:50:01.578Z,19.51
2018-07-01T01:51:01.590Z,19.56
2018-07-01T01:52:01.616Z,19.49
2018-07-01T01:53:01.908Z,19.39
2018-07-01T01:54:01.922Z,19.49
2018-07-01T01:55:01.958Z,19.34
2018-07-01T01:56:01.701Z,19.41
2018-07-01T01:57:01.990Z,19.37
2018-07-01T01:58:02.009Z,19.48
2018-07-01T01:59:02.032Z,19.41
2018-07-01T02:00:02.054Z,19.45
2018-07-01T02:01:01.816Z,19.33
2018-07-01T02:02:02.097Z,19.37
2018-07-01T02:03:01.855Z,19.36
2018-07-01T02:04:02.140Z,19.33
2018-07-01T02:05:02.214Z,19.3
2018-07-01T02:06:02.189Z,19.27
2018-07-01T02:07:01.945Z,19.29
2018-07-01T02:08:01.971Z,19.26
2018-07-01T02:09:02.259Z,19.3
2018-07-01T02:10:02.007Z,19.27
2018-07-01T02:11:02.297Z,19.27
2018-07-01T02:12:02.318Z,19.27
2018-07-01T02:13:02.346Z,19.24
2018-07-01T02:14:02.095Z,19.27
2018-07-01T02:15:02.379Z,19.16
2018-07-01T02:16:02.409Z,19.14
2018-07-01T02:17:02.163Z,19.21
2018-07-01T02:18:02.184Z,19.11
2018-07-01T02:19:02.202Z,19.14
2018-07-01T02:20:02.496Z,19.14
2018-07-01T02:21:02.621Z,19.07
2018-07-01T02:22:02.536Z,19.08
2018-07-01T02:23:02.558Z,19.07
2018-07-01T02:24:02.330Z,18.99
2018-07-01T02:25:02.604Z,19.07
2018-07-01T02:26:02.370Z,19.08
2018-07-01T02:27:02.646Z,18.93
2018-07-01T02:28:02.696Z,19
2018-07-01T02:29:02.699Z,18.92
2018-07-01T02:30:02.464Z,18.95
2018-07-01T02:31:02.740Z,18.96
2018-07-01T02:32:02.780Z,18.9
2018-07-01T02:33:02.784Z,18.95
2018-07-01T02:34:02.811Z,18.95
2018-07-01T02:35:02.821Z,18.92
2018-07-01T02:36:02.845Z,18.98
2018-07-01T02:37:02.870Z,18.88
2018-07-01T02:38:02.909Z,18.88
2018-07-01T02:39:02.913Z,18.83
2018-07-01T02:40:02.945Z,18.84
2018-07-01T02:41:02.955Z,18.89
2018-07-01T02:42:02.986Z,18.84
2018-07-01T02:43:03.007Z,18.86
2018-07-01T02:44:02.748Z,18.89
2018-07-01T02:45:03.042Z,18.86
2018-07-01T02:46:03.074Z,18.78
2018-07-01T02:47:02.831Z,18.84
2018-07-01T02:48:02.913Z,18.81
2018-07-01T02:49:03.124Z,18.78
2018-07-01T02:50:02.902Z,18.74
2018-07-01T02:51:03.190Z,18.8
2018-07-01T02:52:02.939Z,18.66
2018-07-01T02:53:03.215Z,18.78
2018-07-01T02:54:02.995Z,18.68
2018-07-01T02:55:02.987Z,18.68
2018-07-01T02:56:03.287Z,18.65
2018-07-01T02:57:03.297Z,18.74
2018-07-01T02:58:02.812Z,18.59
2018-07-01T02:59:03.078Z,18.6
2018-07-01T03:00:03.377Z,18.58
2018-07-01T03:01:03.399Z,18.62
2018-07-01T03:02:03.167Z,18.59
2018-07-01T03:03:03.166Z,18.6
2018-07-01T03:04:03.448Z,18.62
2018-07-01T03:05:03.214Z,18.58
2018-07-01T03:06:03.492Z,18.62
2018-07-01T03:07:03.248Z,18.53
2018-07-01T03:08:03.277Z,18.62
2018-07-01T03:09:03.646Z,18.53
2018-07-01T03:10:03.585Z,18.49
2018-07-01T03:11:03.598Z,18.5
2018-07-01T03:12:03.355Z,18.45
2018-07-01T03:13:03.648Z,18.43
2018-07-01T03:14:03.682Z,18.53
2018-07-01T03:15:03.413Z,18.47
2018-07-01T03:16:03.714Z,18.44
2018-07-01T03:17:03.745Z,18.43
2018-07-01T03:18:03.485Z,18.4
2018-07-01T03:19:03.498Z,18.41
2018-07-01T03:20:03.794Z,18.35
2018-07-01T03:21:03.814Z,18.43
2018-07-01T03:22:03.582Z,18.35
2018-07-01T03:23:03.855Z,18.35
2018-07-01T03:24:03.356Z,18.29
2018-07-01T03:25:03.626Z,18.29
2018-07-01T03:26:03.918Z,18.25
2018-07-01T03:27:03.942Z,18.26
2018-07-01T03:28:03.696Z,18.29
2018-07-01T03:29:03.718Z,18.35
2018-07-01T03:30:03.494Z,18.35
2018-07-01T03:31:04.025Z,18.23
2018-07-01T03:32:03.798Z,18.2
2018-07-01T03:33:04.069Z,18.23
2018-07-01T03:34:03.818Z,18.22
2018-07-01T03:35:03.844Z,18.18
2018-07-01T03:36:04.128Z,18.22
2018-07-01T03:37:04.150Z,18.18
2018-07-01T03:38:03.906Z,18.13
2018-07-01T03:39:03.927Z,18.18
2018-07-01T03:40:04.212Z,18.16
2018-07-01T03:41:04.242Z,18.22
2018-07-01T03:42:03.989Z,18.15
2018-07-01T03:43:04.284Z,18.15
2018-07-01T03:44:04.302Z,18.16
2018-07-01T03:45:04.334Z,18.15
2018-07-01T03:46:04.346Z,18.1
2018-07-01T03:47:04.095Z,18.03
2018-07-01T03:48:04.116Z,18.03
2018-07-01T03:49:04.420Z,18.15
2018-07-01T03:50:04.512Z,18.01
2018-07-01T03:51:04.458Z,18.07
2018-07-01T03:52:04.201Z,17.98
2018-07-01T03:53:04.245Z,18.01
2018-07-01T03:54:04.516Z,18.08
2018-07-01T03:55:04.281Z,18.07
2018-07-01T03:56:04.588Z,18.03
2018-07-01T03:57:04.329Z,18.1
2018-07-01T03:58:04.597Z,18.08
2018-07-01T03:59:04.616Z,18
2018-07-01T04:00:04.641Z,18.03
2018-07-01T04:01:04.671Z,17.94
2018-07-01T04:02:04.419Z,17.98
2018-07-01T04:03:04.703Z,18.04
2018-07-01T04:04:04.457Z,18
2018-07-01T04:05:04.475Z,18.03
2018-07-01T04:06:04.504Z,18.01
2018-07-01T04:07:04.793Z,17.97
2018-07-01T04:08:04.811Z,18
2018-07-01T04:09:04.831Z,17.97
2018-07-01T04:10:04.330Z,18.01
2018-07-01T04:11:04.868Z,17.97
2018-07-01T04:12:04.624Z,17.94
2018-07-01T04:13:04.646Z,17.97
2018-07-01T04:14:04.952Z,17.9
2018-07-01T04:15:04.953Z,17.9
2018-07-01T04:16:04.990Z,17.9
2018-07-01T04:17:04.997Z,17.9
2018-07-01T04:18:04.768Z,17.89
2018-07-01T04:19:05.044Z,17.94
2018-07-01T04:20:05.061Z,17.97
2018-07-01T04:21:04.544Z,17.9
2018-07-01T04:22:04.568Z,17.87
2018-07-01T04:23:04.851Z,17.86
2018-07-01T04:24:05.138Z,17.89
2018-07-01T04:25:05.164Z,17.86
2018-07-01T04:26:05.182Z,17.87
2018-07-01T04:27:05.202Z,17.85
2018-07-01T04:28:05.232Z,17.82
2018-07-01T04:29:04.979Z,17.87
2018-07-01T04:30:05.267Z,17.82
2018-07-01T04:31:05.140Z,17.79
2018-07-01T04:32:05.315Z,17.79
2018-07-01T04:33:05.070Z,17.8
2018-07-01T04:34:04.848Z,17.82
2018-07-01T04:35:05.104Z,17.79
2018-07-01T04:36:05.158Z,17.76
2018-07-01T04:37:05.148Z,17.83
2018-07-01T04:38:05.444Z,17.78
2018-07-01T04:39:05.452Z,17.8
2018-07-01T04:40:05.502Z,17.79
2018-07-01T04:41:05.496Z,17.79
2018-07-01T04:42:05.271Z,17.8
2018-07-01T04:43:05.543Z,17.76
2018-07-01T04:44:05.054Z,17.78
2018-07-01T04:45:05.583Z,17.72
2018-07-01T04:46:05.600Z,17.8
2018-07-01T04:47:05.624Z,17.8
2018-07-01T04:48:05.655Z,17.78
2018-07-01T04:49:05.669Z,17.78
2018-07-01T04:50:05.435Z,17.7
2018-07-01T04:51:05.435Z,17.72
2018-07-01T04:52:05.198Z,17.7
2018-07-01T04:53:05.759Z,17.72
2018-07-01T04:54:05.500Z,17.67
2018-07-01T04:55:05.732Z,17.71
2018-07-01T04:56:05.833Z,17.72
2018-07-01T04:57:05.565Z,17.67
2018-07-01T04:58:05.386Z,17.7
2018-07-01T04:59:05.870Z,17.71
2018-07-01T05:00:05.899Z,17.72
2018-07-01T05:01:05.908Z,17.71
2018-07-01T05:02:06.099Z,17.68
2018-07-01T05:03:05.958Z,17.74
2018-07-01T05:04:05.450Z,17.71
2018-07-01T05:05:06.004Z,17.76
2018-07-01T05:06:06.090Z,17.72
2018-07-01T05:07:06.063Z,17.7
2018-07-01T05:08:06.062Z,17.82
2018-07-01T05:09:06.086Z,17.74
2018-07-01T05:10:06.111Z,17.8
2018-07-01T05:11:05.855Z,17.74
2018-07-01T05:12:06.336Z,17.7
2018-07-01T05:13:05.898Z,17.74
2018-07-01T05:14:05.923Z,17.82
2018-07-01T05:15:06.208Z,17.7
2018-07-01T05:16:06.225Z,17.74
2018-07-01T05:17:06.350Z,17.64
2018-07-01T05:18:06.016Z,17.71
2018-07-01T05:19:06.296Z,17.71
2018-07-01T05:20:06.069Z,17.74
2018-07-01T05:21:06.059Z,17.65
2018-07-01T05:22:06.082Z,17.72
2018-07-01T05:23:06.841Z,17.7
2018-07-01T05:24:06.574Z,17.7
2018-07-01T05:25:06.679Z,17.68
2018-07-01T05:26:06.699Z,17.7
2018-07-01T05:27:07.082Z,17.72
2018-07-01T05:28:06.206Z,17.68
2018-07-01T05:29:06.556Z,17.65
2018-07-01T05:30:06.247Z,17.74
2018-07-01T05:31:06.275Z,17.6
2018-07-01T05:32:06.568Z,17.83
2018-07-01T05:33:06.045Z,17.76
2018-07-01T05:34:06.599Z,17.68
2018-07-01T05:35:06.747Z,17.72
2018-07-01T05:36:06.642Z,17.8
2018-07-01T05:37:06.666Z,17.72
2018-07-01T05:38:06.678Z,17.71
2018-07-01T05:39:06.707Z,17.78
2018-07-01T05:40:06.199Z,17.74
2018-07-01T05:41:06.478Z,17.76
2018-07-01T05:42:06.234Z,17.7
2018-07-01T05:43:06.533Z,17.7
2018-07-01T05:44:06.273Z,17.68
2018-07-01T05:45:06.572Z,17.74
2018-07-01T05:46:06.577Z,17.68
2018-07-01T05:47:06.604Z,17.68
2018-07-01T05:48:06.899Z,17.72
2018-07-01T05:49:06.922Z,17.71
2018-07-01T05:50:06.667Z,17.82
2018-07-01T05:51:06.952Z,17.7
2018-07-01T05:52:06.709Z,17.71
2018-07-01T05:53:06.723Z,17.72
2018-07-01T05:54:07.016Z,17.7
2018-07-01T05:55:06.765Z,17.74
2018-07-01T05:56:06.999Z,17.76
2018-07-01T05:57:07.170Z,17.67
2018-07-01T05:58:06.829Z,17.71
2018-07-01T05:59:06.861Z,17.65
2018-07-01T06:00:06.624Z,17.72
2018-07-01T06:01:06.625Z,17.72
2018-07-01T06:02:06.913Z,17.74
2018-07-01T06:03:06.666Z,17.78
2018-07-01T06:04:06.960Z,17.8
2018-07-01T06:05:07.249Z,17.78
2018-07-01T06:06:07.020Z,17.76
2018-07-01T06:07:07.015Z,17.78
2018-07-01T06:08:07.037Z,17.72
2018-07-01T06:09:06.787Z,17.78
2018-07-01T06:10:07.736Z,17.83
2018-07-01T06:11:07.100Z,17.8
2018-07-01T06:12:07.120Z,17.87
2018-07-01T06:13:06.873Z,17.8
2018-07-01T06:14:07.251Z,17.87
2018-07-01T06:15:07.181Z,17.86
2018-07-01T06:16:07.204Z,17.83
2018-07-01T06:17:06.954Z,17.9
2018-07-01T06:18:07.246Z,17.87
2018-07-01T06:19:07.260Z,17.89
2018-07-01T06:20:07.287Z,17.95
2018-07-01T06:21:07.595Z,17.97
2018-07-01T06:22:07.329Z,17.97
2018-07-01T06:23:07.625Z,17.92
2018-07-01T06:24:07.630Z,17.98
2018-07-01T06:25:07.390Z,18
2018-07-01T06:26:07.407Z,18.05
2018-07-01T06:27:07.425Z,18.05
2018-07-01T06:28:07.718Z,18.05
2018-07-01T06:29:07.746Z,18.01
2018-07-01T06:30:07.222Z,18.05
2018-07-01T06:31:07.776Z,18.05
2018-07-01T06:32:07.804Z,18.07
2018-07-01T06:33:07.817Z,18.18
2018-07-01T06:34:07.841Z,18.1
2018-07-01T06:35:07.326Z,18.13
2018-07-01T06:36:07.619Z,18.11
2018-07-01T06:37:07.907Z,18.22
2018-07-01T06:38:07.650Z,18.25
2018-07-01T06:39:07.680Z,18.25
2018-07-01T06:40:07.962Z,18.2
2018-07-01T06:41:07.982Z,18.34
2018-07-01T06:42:07.992Z,18.33
2018-07-01T06:43:08.037Z,18.28
2018-07-01T06:44:07.781Z,18.34
2018-07-01T06:45:07.795Z,18.38
2018-07-01T06:46:07.817Z,18.35
2018-07-01T06:47:07.842Z,18.49
2018-07-01T06:48:07.598Z,18.45
2018-07-01T06:49:07.626Z,18.47
2018-07-01T06:50:07.909Z,18.45
2018-07-01T06:51:07.661Z,18.47
2018-07-01T06:52:08.219Z,18.5
2018-07-01T06:53:08.229Z,18.6
2018-07-01T06:54:08.251Z,18.58
2018-07-01T06:55:08.312Z,18.59
2018-07-01T06:56:08.024Z,18.58
2018-07-01T06:57:08.052Z,18.68
2018-07-01T06:58:08.339Z,18.66
2018-07-01T06:59:08.090Z,18.71
2018-07-01T07:00:07.848Z,18.83
2018-07-01T07:01:07.864Z,18.84
2018-07-01T07:02:08.426Z,18.88
2018-07-01T07:03:08.453Z,18.88
2018-07-01T07:04:08.463Z,18.95
2018-07-01T07:05:08.220Z,18.88
2018-07-01T07:06:08.507Z,18.98
2018-07-01T07:07:08.261Z,18.99
2018-07-01T07:08:08.420Z,19.09
2018-07-01T07:09:08.310Z,19.12
2018-07-01T07:10:08.328Z,19.19
2018-07-01T07:11:08.699Z,19.26
2018-07-01T07:12:08.631Z,19.31
2018-07-01T07:13:08.386Z,19.3
2018-07-01T07:14:08.676Z,19.34
2018-07-01T07:15:08.697Z,19.4
2018-07-01T07:16:08.476Z,19.41
2018-07-01T07:17:08.740Z,19.44
2018-07-01T07:18:08.765Z,19.55
2018-07-01T07:19:08.785Z,19.55
2018-07-01T07:20:08.806Z,19.67
2018-07-01T07:21:08.819Z,19.81
2018-07-01T07:22:08.849Z,19.7
2018-07-01T07:23:08.867Z,19.79
2018-07-01T07:24:08.887Z,19.81
2018-07-01T07:25:08.918Z,19.99
2018-07-01T07:26:08.670Z,19.99
2018-07-01T07:27:08.680Z,20.07
2018-07-01T07:28:08.968Z,20.03
2018-07-01T07:29:08.722Z,20.19
2018-07-01T07:30:09.014Z,20.22
2018-07-01T07:31:08.769Z,20.28
2018-07-01T07:32:09.219Z,20.32
2018-07-01T07:33:09.077Z,20.41
2018-07-01T07:34:08.829Z,20.52
2018-07-01T07:35:09.119Z,20.52
2018-07-01T07:36:09.163Z,20.47
2018-07-01T07:37:08.898Z,20.6
2018-07-01T07:38:08.916Z,20.62
2018-07-01T07:39:09.263Z,20.77
2018-07-01T07:40:08.960Z,20.8
2018-07-01T07:41:09.248Z,20.81
2018-07-01T07:42:09.271Z,20.96
2018-07-01T07:43:09.294Z,20.92
2018-07-01T07:44:09.310Z,21.03
2018-07-01T07:45:09.201Z,21.12
2018-07-01T07:46:09.090Z,21.2
2018-07-01T07:47:09.109Z,21.25
2018-07-01T07:48:09.131Z,21.35
2018-07-01T07:49:09.420Z,21.43
2018-07-01T07:50:09.183Z,21.45
2018-07-01T07:51:09.466Z,21.51
2018-07-01T07:52:09.308Z,21.58
2018-07-01T07:53:09.511Z,21.58
2018-07-01T07:54:09.531Z,21.69
2018-07-01T07:55:09.555Z,21.69
2018-07-01T07:56:09.578Z,21.77
2018-07-01T07:57:09.326Z,21.82
2018-07-01T07:58:09.638Z,21.93
2018-07-01T07:59:09.373Z,22.02
2018-07-01T08:00:09.670Z,22.04
2018-07-01T08:01:09.690Z,22.17
2018-07-01T08:02:09.995Z,22.23
2018-07-01T08:03:09.459Z,22.28
2018-07-01T08:04:09.482Z,22.38
2018-07-01T08:05:09.507Z,22.43
2018-07-01T08:06:09.795Z,22.48
2018-07-01T08:07:09.829Z,22.44
2018-07-01T08:08:09.839Z,22.57
2018-07-01T08:09:09.590Z,22.63
2018-07-01T08:10:09.618Z,22.7
2018-07-01T08:11:09.919Z,22.81
2018-07-01T08:12:09.666Z,22.91
2018-07-01T08:13:10.267Z,23.02
2018-07-01T08:14:09.727Z,23.1
2018-07-01T08:15:09.725Z,23.1
2018-07-01T08:16:09.744Z,23.21
2018-07-01T08:17:10.035Z,23.32
2018-07-01T08:18:10.058Z,23.39
2018-07-01T08:19:09.814Z,23.37
2018-07-01T08:20:09.884Z,23.44
2018-07-01T08:21:09.856Z,23.51
2018-07-01T08:22:09.880Z,23.61
2018-07-01T08:23:10.178Z,23.63
2018-07-01T08:24:09.927Z,23.68
2018-07-01T08:25:10.272Z,23.78
2018-07-01T08:26:10.241Z,23.77
2018-07-01T08:27:10.000Z,23.76
2018-07-01T08:28:10.018Z,23.83
2018-07-01T08:29:10.043Z,23.88
2018-07-01T08:30:10.120Z,23.96
2018-07-01T08:31:10.085Z,24.14
2018-07-01T08:32:10.374Z,24.1
2018-07-01T08:33:10.408Z,24.16
2018-07-01T08:34:10.154Z,24.23
2018-07-01T08:35:10.480Z,24.28
2018-07-01T08:36:10.478Z,24.28
2018-07-01T08:37:10.222Z,24.47
2018-07-01T08:38:09.979Z,24.5
2018-07-01T08:39:10.004Z,24.54
2018-07-01T08:40:10.317Z,24.55
2018-07-01T08:41:10.311Z,24.63
2018-07-01T08:42:10.340Z,24.74
2018-07-01T08:43:10.625Z,24.8
2018-07-01T08:44:10.655Z,24.81
2018-07-01T08:45:10.409Z,24.86
2018-07-01T08:46:10.488Z,24.95
2018-07-01T08:47:10.456Z,24.95
2018-07-01T08:48:10.820Z,25.14
2018-07-01T08:49:10.770Z,25.14
2018-07-01T08:50:10.803Z,25.22
2018-07-01T08:51:10.285Z,25.25
2018-07-01T08:52:10.840Z,25.33
2018-07-01T08:53:10.864Z,25.43
2018-07-01T08:54:10.355Z,25.47
2018-07-01T08:55:10.662Z,25.58
2018-07-01T08:56:10.669Z,25.58
2018-07-01T08:57:10.688Z,25.66
2018-07-01T08:58:10.980Z,25.72
2018-07-01T08:59:10.736Z,25.81
2018-07-01T09:00:11.042Z,25.8
2018-07-01T09:01:11.052Z,25.9
2018-07-01T09:02:10.540Z,25.99
2018-07-01T09:03:10.834Z,26.09
2018-07-01T09:04:10.857Z,26.09
2018-07-01T09:05:10.880Z,26.18
2018-07-01T09:06:11.185Z,26.13
2018-07-01T09:07:10.927Z,26.26
2018-07-01T09:08:11.098Z,26.28
2018-07-01T09:09:11.241Z,26.31
2018-07-01T09:10:11.273Z,26.37
2018-07-01T09:11:11.081Z,26.48
2018-07-01T09:12:11.320Z,26.53
2018-07-01T09:13:11.344Z,26.58
2018-07-01T09:14:11.097Z,26.59
2018-07-01T09:15:11.441Z,26.62
2018-07-01T09:16:11.420Z,26.71
2018-07-01T09:17:11.249Z,26.73
2018-07-01T09:18:11.196Z,26.77
2018-07-01T09:19:11.222Z,26.85
2018-07-01T09:20:11.524Z,26.89
2018-07-01T09:21:11.274Z,26.97
2018-07-01T09:22:11.558Z,26.99
2018-07-01T09:23:11.588Z,27.12
2018-07-01T09:24:11.343Z,27.25
2018-07-01T09:25:11.643Z,27.26
2018-07-01T09:26:11.392Z,27.36
2018-07-01T09:27:11.686Z,27.4
2018-07-01T09:28:12.062Z,27.45
2018-07-01T09:29:11.731Z,27.48
2018-07-01T09:30:11.500Z,27.51
2018-07-01T09:31:11.522Z,27.59
2018-07-01T09:32:12.244Z,27.59
2018-07-01T09:33:11.837Z,27.67
2018-07-01T09:34:11.862Z,27.8
2018-07-01T09:35:11.889Z,27.87
2018-07-01T09:36:11.654Z,27.9
2018-07-01T09:37:11.941Z,27.93
2018-07-01T09:38:11.426Z,28.04
2018-07-01T09:39:11.985Z,27.98
2018-07-01T09:40:11.744Z,28.15
2018-07-01T09:41:12.037Z,28.17
2018-07-01T09:42:12.068Z,28.22
2018-07-01T09:43:12.092Z,28.29
2018-07-01T09:44:11.843Z,28.35
2018-07-01T09:45:12.136Z,28.35
2018-07-01T09:46:11.897Z,28.44
2018-07-01T09:47:12.193Z,28.42
2018-07-01T09:48:12.218Z,28.52
2018-07-01T09:49:11.978Z,28.62
2018-07-01T09:50:12.321Z,28.66
2018-07-01T09:51:12.372Z,28.62
2018-07-01T09:52:12.315Z,28.69
2018-07-01T09:53:12.349Z,28.82
2018-07-01T09:54:12.104Z,28.76
2018-07-01T09:55:12.392Z,28.81
2018-07-01T09:56:11.892Z,28.89
2018-07-01T09:57:12.444Z,28.96
2018-07-01T09:58:12.471Z,29.05
2018-07-01T09:59:12.499Z,29.05
2018-07-01T10:00:12.260Z,29.17
2018-07-01T10:01:12.790Z,29.14
2018-07-01T10:02:12.317Z,29.39
2018-07-01T10:03:12.608Z,29.36
2018-07-01T10:04:12.362Z,29.53
2018-07-01T10:05:12.655Z,29.56
2018-07-01T10:06:12.686Z,29.59
2018-07-01T10:07:12.710Z,29.76
2018-07-01T10:08:12.740Z,29.72
2018-07-01T10:09:12.492Z,29.81
2018-07-01T10:10:12.789Z,29.76
2018-07-01T10:11:12.815Z,29.95
2018-07-01T10:12:12.576Z,29.97
2018-07-01T10:13:12.600Z,29.93
2018-07-01T10:14:12.637Z,30
2018-07-01T10:15:12.919Z,30.06
2018-07-01T10:16:12.680Z,30.12
2018-07-01T10:17:12.706Z,30.16
2018-07-01T10:18:13.017Z,30.19
2018-07-01T10:19:13.031Z,30.31
2018-07-01T10:20:12.790Z,30.27
2018-07-01T10:21:13.085Z,30.32
2018-07-01T10:22:13.121Z,30.47
2018-07-01T10:23:13.139Z,30.43
2018-07-01T10:24:12.633Z,30.51
2018-07-01T10:25:13.193Z,30.63
2018-07-01T10:26:13.224Z,30.63
2018-07-01T10:27:13.028Z,30.77
2018-07-01T10:28:13.276Z,30.77
2018-07-01T10:29:13.306Z,30.83
2018-07-01T10:30:13.058Z,30.87
2018-07-01T10:31:13.090Z,30.91
2018-07-01T10:32:13.384Z,31.09
2018-07-01T10:33:13.151Z,31.09
2018-07-01T10:34:12.906Z,31.14
2018-07-01T10:35:13.197Z,31.22
2018-07-01T10:36:13.494Z,31.27
2018-07-01T10:37:13.263Z,31.25
2018-07-01T10:38:13.281Z,31.28
2018-07-01T10:39:13.574Z,31.47
2018-07-01T10:40:13.415Z,31.42
2018-07-01T10:41:13.377Z,31.33
2018-07-01T10:42:13.388Z,31.4
2018-07-01T10:43:13.688Z,31.39
2018-07-01T10:44:13.448Z,31.56
2018-07-01T10:45:13.743Z,31.54
2018-07-01T10:46:13.504Z,31.59
2018-07-01T10:47:13.540Z,31.65
2018-07-01T10:48:13.556Z,31.71
2018-07-01T10:49:13.858Z,31.71
2018-07-01T10:50:13.891Z,31.76
2018-07-01T10:51:13.713Z,31.85
2018-07-01T10:52:13.940Z,31.87
2018-07-01T10:53:13.966Z,31.85
2018-07-01T10:54:13.736Z,31.9
2018-07-01T10:55:14.024Z,32.01
2018-07-01T10:56:13.789Z,32.11
2018-07-01T10:57:14.082Z,32.21
2018-07-01T10:58:13.842Z,32.16
2018-07-01T10:59:14.137Z,32.21
2018-07-01T11:00:13.904Z,32.3
2018-07-01T11:01:13.926Z,32.29
2018-07-01T11:02:14.009Z,32.31
2018-07-01T11:03:13.987Z,32.38
2018-07-01T11:04:14.289Z,32.43
2018-07-01T11:05:14.041Z,32.49
2018-07-01T11:06:14.824Z,32.6
2018-07-01T11:07:14.101Z,32.71
2018-07-01T11:08:14.400Z,32.71
2018-07-01T11:09:14.426Z,32.75
2018-07-01T11:10:14.459Z,32.82
2018-07-01T11:11:14.489Z,32.83
2018-07-01T11:12:14.513Z,32.8
2018-07-01T11:13:14.833Z,32.75
2018-07-01T11:14:14.302Z,32.83
2018-07-01T11:15:14.067Z,32.82
2018-07-01T11:16:14.633Z,32.78
2018-07-01T11:17:14.657Z,32.75
2018-07-01T11:18:14.691Z,32.77
2018-07-01T11:19:14.723Z,32.73
2018-07-01T11:20:14.247Z,32.86
2018-07-01T11:21:14.780Z,32.85
2018-07-01T11:22:14.806Z,32.87
2018-07-01T11:23:14.841Z,32.83
2018-07-01T11:24:14.866Z,32.89
2018-07-01T11:25:14.893Z,33
2018-07-01T11:26:14.659Z,33.01
2018-07-01T11:27:15.595Z,33.05
2018-07-01T11:28:14.984Z,33.07
2018-07-01T11:29:14.746Z,33.19
2018-07-01T11:30:14.513Z,33.19
2018-07-01T11:31:14.801Z,33.22
2018-07-01T11:32:15.105Z,33.23
2018-07-01T11:33:14.869Z,33.31
2018-07-01T11:34:15.165Z,33.34
2018-07-01T11:35:15.472Z,33.4
2018-07-01T11:36:14.690Z,33.45
2018-07-01T11:37:14.987Z,33.4
2018-07-01T11:38:15.523Z,33.55
2018-07-01T11:39:15.315Z,33.68
2018-07-01T11:40:15.341Z,33.71
2018-07-01T11:41:15.369Z,33.73
2018-07-01T11:42:15.130Z,33.87
2018-07-01T11:43:15.437Z,33.9
2018-07-01T11:44:15.460Z,34.17
2018-07-01T11:45:15.488Z,34.2
2018-07-01T11:46:15.252Z,34.29
2018-07-01T11:47:15.282Z,34.33
2018-07-01T11:48:15.581Z,34.39
2018-07-01T11:49:15.618Z,34.48
2018-07-01T11:50:15.648Z,34.54
2018-07-01T11:51:15.682Z,34.55
2018-07-01T11:52:15.769Z,34.51
2018-07-01T11:53:15.737Z,34.5
2018-07-01T11:54:15.781Z,34.6
2018-07-01T11:55:15.530Z,34.67
2018-07-01T11:56:15.826Z,34.54
2018-07-01T11:57:15.591Z,34.6
2018-07-01T11:58:15.639Z,34.52
2018-07-01T11:59:15.922Z,34.55
2018-07-01T12:00:15.684Z,34.6
2018-07-01T12:01:15.712Z,34.55
2018-07-01T12:02:16.015Z,34.61
2018-07-01T12:03:15.778Z,34.6
2018-07-01T12:04:15.806Z,34.62
2018-07-01T12:05:22.020Z,34.61
2018-07-01T12:06:16.134Z,34.7
2018-07-01T12:07:16.176Z,34.57
2018-07-01T12:08:15.935Z,34.62
2018-07-01T12:09:16.229Z,34.54
2018-07-01T12:10:15.995Z,34.51
2018-07-01T12:11:16.300Z,34.43
2018-07-01T12:12:16.322Z,34.43
2018-07-01T12:13:16.346Z,34.4
2018-07-01T12:14:16.118Z,34.5
2018-07-01T12:15:16.423Z,34.5
2018-07-01T12:16:16.451Z,34.6
2018-07-01T12:17:16.478Z,34.61
2018-07-01T12:18:16.506Z,34.62
2018-07-01T12:19:16.539Z,34.73
2018-07-01T12:20:16.580Z,34.67
2018-07-01T12:21:16.343Z,34.67
2018-07-01T12:22:16.641Z,34.77
2018-07-01T12:23:16.457Z,34.67
2018-07-01T12:24:16.697Z,34.74
2018-07-01T12:25:16.735Z,34.85
2018-07-01T12:26:16.759Z,34.95
2018-07-01T12:27:16.793Z,35.04
2018-07-01T12:28:16.831Z,35.05
2018-07-01T12:29:16.858Z,35.11
2018-07-01T12:30:16.911Z,35.08
2018-07-01T12:31:16.914Z,35.31
2018-07-01T12:32:16.951Z,35.19
2018-07-01T12:33:16.980Z,35.36
2018-07-01T12:34:16.750Z,35.26
2018-07-01T12:35:17.050Z,35.36
2018-07-01T12:36:16.805Z,35.37
2018-07-01T12:37:17.114Z,35.42
2018-07-01T12:38:17.139Z,35.44
2018-07-01T12:39:17.172Z,35.52
2018-07-01T12:40:17.202Z,35.56
2018-07-01T12:41:17.235Z,35.58
2018-07-01T12:42:17.441Z,35.53
2018-07-01T12:43:17.303Z,35.58
2018-07-01T12:44:17.064Z,35.58
2018-07-01T12:45:17.369Z,35.7
2018-07-01T12:46:17.128Z,35.8
2018-07-01T12:47:17.427Z,35.78
2018-07-01T12:48:17.193Z,35.97
2018-07-01T12:49:17.227Z,35.86
2018-07-01T12:50:17.262Z,35.98
2018-07-01T12:51:17.290Z,35.98
2018-07-01T12:52:17.057Z,36.07
2018-07-01T12:53:17.352Z,36.2
2018-07-01T12:54:17.380Z,36.25
2018-07-01T12:55:17.690Z,36.3
2018-07-01T12:56:17.893Z,36.39
2018-07-01T12:57:17.748Z,36.52
2018-07-01T12:58:17.779Z,36.46
2018-07-01T12:59:17.809Z,36.45